Buford, OH

12:40 AM EDT on March 30, 2015 (GMT -0400)
Cincinnati Municipal-Lunken | | Change Station
CLOSE
Current Station
Airport
Location: Cincinnati,
Elevation: 482 ft
Nearby Weather Stations

Elev 482 ft 39.10 °N, 84.42 °W | Updated 47 minutes ago

Overcast
Overcast
42 °F
Feels Like 38 °F
N
6
Wind Variable Wind from SSW

Today
High -- | Low -- °F
--% Chance of Precip.
Yesterday
High -- | Low -- °F
Precip. -- in
7:22 AM 7:55 PM
Waxing Gibbous, 77% visible
Pressure 30.01 in
Visibility 10.0 miles
Clouds Overcast 4800 ft
Windchill 38 °F
Dew Point 40 °F
Humidity 92%
Rainfall 0.11 in
Snow Depth Not available.
UV 0 out of 12
Pollen 8.30 out of 12
Air Quality Not available.
Flu Activity Not available.
METAR KLUK 300353Z AUTO 20005KT 10SM OVC048 06/04 A3000 RMK AO2 RAE21 SLP162 P0000 T00560044

More Conditions Fewer Conditions

Pressure 30.01 in
Visibility 10.0 miles
Clouds Overcast 4800 ft
Windchill 38 °F
Dew Point 40 °F
Humidity 92%
Rainfall 0.11 in
Snow Depth Not available.
UV 0 out of 12
Pollen 8.30 out of 12
Air Quality Not available.
Flu Activity Not available.
METAR KLUK 300353Z AUTO 20005KT 10SM OVC048 06/04 A3000 RMK AO2 RAE21 SLP162 P0000 T00560044

More Conditions Fewer Conditions

10-Day Weather Forecast

Almanac

Astronomy

Mar. 30, 2015 Rise Set
Actual Time
Civil Twilight
Nautical Twilight
Astronomical Twilight
Moon
Length of Visible Light
Length of Day
Tomorrow will be .
, % of the Moon is Illuminated

Today's Extremes

State Highs State Lows

Community

WunderPhotos

Upload Photos

1,809,436 photos uploaded!

WunderBlogs® & News

Nearby

Air Quality

  Air Quality AQ Index Pollutant
Not available.

Snow Depth

Station Depth Elevation

Earthquake Activity

City Distance Mag. Time & Date
Minimum magnitude displayed is 2.5.

Coastal Water Temperatures

Place Temperature

Stations

Nearby Weather Stations

Station Location Temp. Windchill Dew Point Humidity Wind Precip. Elev Updated Type